sensor_id;sensor_type;location;lat;lon;timestamp;P1;durP1;ratioP1;P2;durP2;ratioP2
27666;SDS011;15074;50.940;5.282;2023-03-12T00:01:24;10.40;;;8.18;;
27666;SDS011;15074;50.940;5.282;2023-03-12T00:03:51;11.13;;;8.20;;
27666;SDS011;15074;50.940;5.282;2023-03-12T00:06:18;11.95;;;8.60;;
27666;SDS011;15074;50.940;5.282;2023-03-12T00:08:46;10.45;;;8.15;;
27666;SDS011;15074;50.940;5.282;2023-03-12T00:11:13;11.80;;;8.55;;
27666;SDS011;15074;50.940;5.282;2023-03-12T00:13:42;12.48;;;8.60;;
27666;SDS011;15074;50.940;5.282;2023-03-12T00:22:15;9.93;;;8.20;;
27666;SDS011;15074;50.940;5.282;2023-03-12T00:24:40;8.60;;;7.75;;
27666;SDS011;15074;50.940;5.282;2023-03-12T00:27:06;8.65;;;7.82;;
27666;SDS011;15074;50.940;5.282;2023-03-12T00:29:32;11.75;;;8.82;;
27666;SDS011;15074;50.940;5.282;2023-03-12T00:37:58;13.52;;;7.15;;
27666;SDS011;15074;50.940;5.282;2023-03-12T00:40:24;9.70;;;7.13;;
27666;SDS011;15074;50.940;5.282;2023-03-12T00:49:43;10.38;;;7.15;;
27666;SDS011;15074;50.940;5.282;2023-03-12T00:55:12;9.38;;;6.75;;
27666;SDS011;15074;50.940;5.282;2023-03-12T00:57:38;7.20;;;6.22;;
27666;SDS011;15074;50.940;5.282;2023-03-12T01:00:04;10.90;;;6.35;;
27666;SDS011;15074;50.940;5.282;2023-03-12T01:02:34;6.95;;;6.13;;
27666;SDS011;15074;50.940;5.282;2023-03-12T01:05:01;9.00;;;6.07;;
27666;SDS011;15074;50.940;5.282;2023-03-12T01:10:54;12.65;;;5.90;;
27666;SDS011;15074;50.940;5.282;2023-03-12T01:13:20;7.20;;;5.88;;
27666;SDS011;15074;50.940;5.282;2023-03-12T01:15:46;9.10;;;6.38;;
27666;SDS011;15074;50.940;5.282;2023-03-12T01:18:28;12.60;;;5.75;;
27666;SDS011;15074;50.940;5.282;2023-03-12T01:23:38;7.78;;;5.80;;
27666;SDS011;15074;50.940;5.282;2023-03-12T01:26:04;9.32;;;5.05;;
27666;SDS011;15074;50.940;5.282;2023-03-12T01:28:29;7.50;;;5.25;;
27666;SDS011;15074;50.940;5.282;2023-03-12T01:30:55;8.30;;;5.47;;
27666;SDS011;15074;50.940;5.282;2023-03-12T01:40:17;10.82;;;4.22;;
27666;SDS011;15074;50.940;5.282;2023-03-12T01:51:18;6.78;;;4.20;;
27666;SDS011;15074;50.940;5.282;2023-03-12T01:53:47;5.85;;;3.75;;
27666;SDS011;15074;50.940;5.282;2023-03-12T01:56:16;6.68;;;3.97;;
27666;SDS011;15074;50.940;5.282;2023-03-12T01:58:45;6.03;;;3.88;;
27666;SDS011;15074;50.940;5.282;2023-03-12T02:01:14;5.50;;;3.58;;
27666;SDS011;15074;50.940;5.282;2023-03-12T02:03:44;8.43;;;3.90;;
27666;SDS011;15074;50.940;5.282;2023-03-12T02:06:13;5.03;;;3.80;;
27666;SDS011;15074;50.940;5.282;2023-03-12T02:08:43;6.47;;;3.97;;
27666;SDS011;15074;50.940;5.282;2023-03-12T02:15:30;6.55;;;3.78;;
27666;SDS011;15074;50.940;5.282;2023-03-12T02:17:57;8.70;;;3.80;;
27666;SDS011;15074;50.940;5.282;2023-03-12T02:25:56;13.63;;;3.65;;
27666;SDS011;15074;50.940;5.282;2023-03-12T02:28:24;4.82;;;3.25;;
27666;SDS011;15074;50.940;5.282;2023-03-12T02:34:30;4.50;;;2.88;;
27666;SDS011;15074;50.940;5.282;2023-03-12T02:36:56;7.65;;;3.25;;
27666;SDS011;15074;50.940;5.282;2023-03-12T02:39:22;9.30;;;3.30;;
27666;SDS011;15074;50.940;5.282;2023-03-12T02:41:50;3.40;;;2.40;;
27666;SDS011;15074;50.940;5.282;2023-03-12T02:47:02;4.22;;;2.50;;
27666;SDS011;15074;50.940;5.282;2023-03-12T02:49:29;3.90;;;2.17;;
27666;SDS011;15074;50.940;5.282;2023-03-12T02:51:56;4.72;;;2.47;;
27666;SDS011;15074;50.940;5.282;2023-03-12T02:54:22;5.35;;;2.45;;
27666;SDS011;15074;50.940;5.282;2023-03-12T02:59:54;6.35;;;2.50;;
27666;SDS011;15074;50.940;5.282;2023-03-12T03:02:19;3.25;;;2.28;;
27666;SDS011;15074;50.940;5.282;2023-03-12T03:07:44;4.22;;;2.25;;
27666;SDS011;15074;50.940;5.282;2023-03-12T03:10:10;2.78;;;2.05;;
27666;SDS011;15074;50.940;5.282;2023-03-12T03:12:37;4.90;;;2.67;;
27666;SDS011;15074;50.940;5.282;2023-03-12T03:15:03;4.57;;;2.10;;
27666;SDS011;15074;50.940;5.282;2023-03-12T03:17:29;5.57;;;2.20;;
27666;SDS011;15074;50.940;5.282;2023-03-12T03:19:55;4.03;;;2.95;;
27666;SDS011;15074;50.940;5.282;2023-03-12T03:22:21;5.35;;;2.25;;
27666;SDS011;15074;50.940;5.282;2023-03-12T03:24:46;7.13;;;3.45;;
27666;SDS011;15074;50.940;5.282;2023-03-12T03:27:13;5.28;;;3.40;;
27666;SDS011;15074;50.940;5.282;2023-03-12T03:32:10;3.33;;;2.42;;
27666;SDS011;15074;50.940;5.282;2023-03-12T03:34:36;4.30;;;2.90;;
27666;SDS011;15074;50.940;5.282;2023-03-12T03:37:03;4.13;;;2.55;;
27666;SDS011;15074;50.940;5.282;2023-03-12T03:42:38;9.57;;;3.50;;
27666;SDS011;15074;50.940;5.282;2023-03-12T03:45:05;7.05;;;3.50;;
27666;SDS011;15074;50.940;5.282;2023-03-12T03:47:31;5.72;;;3.42;;
27666;SDS011;15074;50.940;5.282;2023-03-12T03:49:57;4.78;;;3.10;;
27666;SDS011;15074;50.940;5.282;2023-03-12T03:52:22;9.02;;;4.05;;
27666;SDS011;15074;50.940;5.282;2023-03-12T03:54:48;5.97;;;3.83;;
27666;SDS011;15074;50.940;5.282;2023-03-12T03:57:14;6.93;;;3.53;;
27666;SDS011;15074;50.940;5.282;2023-03-12T03:59:39;8.50;;;3.53;;
27666;SDS011;15074;50.940;5.282;2023-03-12T04:04:52;13.95;;;3.83;;
27666;SDS011;15074;50.940;5.282;2023-03-12T04:07:21;6.47;;;3.90;;
27666;SDS011;15074;50.940;5.282;2023-03-12T04:09:47;7.38;;;3.88;;
27666;SDS011;15074;50.940;5.282;2023-03-12T04:12:13;11.10;;;4.07;;
27666;SDS011;15074;50.940;5.282;2023-03-12T04:17:49;11.82;;;4.18;;
27666;SDS011;15074;50.940;5.282;2023-03-12T04:20:15;6.05;;;4.03;;
27666;SDS011;15074;50.940;5.282;2023-03-12T04:22:40;6.80;;;5.05;;
27666;SDS011;15074;50.940;5.282;2023-03-12T04:25:22;6.63;;;5.00;;
27666;SDS011;15074;50.940;5.282;2023-03-12T04:27:49;5.55;;;4.00;;
27666;SDS011;15074;50.940;5.282;2023-03-12T04:30:15;6.35;;;4.07;;
27666;SDS011;15074;50.940;5.282;2023-03-12T04:32:41;6.30;;;4.07;;
27666;SDS011;15074;50.940;5.282;2023-03-12T04:38:01;5.25;;;4.13;;
27666;SDS011;15074;50.940;5.282;2023-03-12T04:40:28;5.38;;;4.63;;
27666;SDS011;15074;50.940;5.282;2023-03-12T04:42:53;6.20;;;4.22;;
27666;SDS011;15074;50.940;5.282;2023-03-12T04:48:44;7.47;;;3.97;;
27666;SDS011;15074;50.940;5.282;2023-03-12T04:51:10;6.20;;;4.47;;
27666;SDS011;15074;50.940;5.282;2023-03-12T04:53:36;16.42;;;3.90;;
27666;SDS011;15074;50.940;5.282;2023-03-12T04:56:01;6.55;;;4.22;;
27666;SDS011;15074;50.940;5.282;2023-03-12T04:58:27;5.68;;;3.92;;
27666;SDS011;15074;50.940;5.282;2023-03-12T05:00:53;7.63;;;5.10;;
27666;SDS011;15074;50.940;5.282;2023-03-12T05:03:18;5.25;;;4.63;;
27666;SDS011;15074;50.940;5.282;2023-03-12T05:05:44;9.73;;;4.43;;
27666;SDS011;15074;50.940;5.282;2023-03-12T05:17:25;6.72;;;5.47;;
27666;SDS011;15074;50.940;5.282;2023-03-12T05:19:51;9.18;;;5.75;;
27666;SDS011;15074;50.940;5.282;2023-03-12T05:22:35;5.95;;;4.32;;
27666;SDS011;15074;50.940;5.282;2023-03-12T05:25:01;7.68;;;4.85;;
27666;SDS011;15074;50.940;5.282;2023-03-12T05:27:27;8.27;;;4.50;;
27666;SDS011;15074;50.940;5.282;2023-03-12T05:29:53;7.65;;;4.80;;
27666;SDS011;15074;50.940;5.282;2023-03-12T05:32:19;8.35;;;5.38;;
27666;SDS011;15074;50.940;5.282;2023-03-12T05:34:44;6.25;;;4.43;;
27666;SDS011;15074;50.940;5.282;2023-03-12T05:40:36;6.22;;;5.03;;
27666;SDS011;15074;50.940;5.282;2023-03-12T05:43:02;7.68;;;4.97;;
27666;SDS011;15074;50.940;5.282;2023-03-12T05:45:28;6.65;;;5.55;;
27666;SDS011;15074;50.940;5.282;2023-03-12T05:47:53;6.90;;;4.55;;
27666;SDS011;15074;50.940;5.282;2023-03-12T05:50:22;17.90;;;6.50;;
27666;SDS011;15074;50.940;5.282;2023-03-12T05:52:47;11.65;;;4.60;;
27666;SDS011;15074;50.940;5.282;2023-03-12T05:55:13;10.10;;;5.38;;
27666;SDS011;15074;50.940;5.282;2023-03-12T06:00:24;6.68;;;5.55;;
27666;SDS011;15074;50.940;5.282;2023-03-12T06:02:50;6.85;;;5.10;;
27666;SDS011;15074;50.940;5.282;2023-03-12T06:05:15;8.43;;;5.65;;
27666;SDS011;15074;50.940;5.282;2023-03-12T06:07:41;10.88;;;5.32;;
27666;SDS011;15074;50.940;5.282;2023-03-12T06:10:07;9.05;;;5.10;;
27666;SDS011;15074;50.940;5.282;2023-03-12T06:12:33;7.60;;;5.22;;
27666;SDS011;15074;50.940;5.282;2023-03-12T06:14:59;6.90;;;4.60;;
27666;SDS011;15074;50.940;5.282;2023-03-12T06:17:25;7.35;;;5.20;;
27666;SDS011;15074;50.940;5.282;2023-03-12T06:19:50;7.25;;;5.25;;
27666;SDS011;15074;50.940;5.282;2023-03-12T06:22:17;7.30;;;4.95;;
27666;SDS011;15074;50.940;5.282;2023-03-12T06:24:43;7.25;;;5.35;;
27666;SDS011;15074;50.940;5.282;2023-03-12T06:27:11;8.15;;;5.13;;
27666;SDS011;15074;50.940;5.282;2023-03-12T06:29:37;8.93;;;5.35;;
27666;SDS011;15074;50.940;5.282;2023-03-12T06:32:03;8.93;;;5.68;;
27666;SDS011;15074;50.940;5.282;2023-03-12T06:34:29;8.10;;;6.00;;
27666;SDS011;15074;50.940;5.282;2023-03-12T06:36:55;7.75;;;6.75;;
27666;SDS011;15074;50.940;5.282;2023-03-12T06:39:20;8.52;;;5.53;;
27666;SDS011;15074;50.940;5.282;2023-03-12T06:41:46;9.10;;;6.82;;
27666;SDS011;15074;50.940;5.282;2023-03-12T06:44:12;9.90;;;7.00;;
27666;SDS011;15074;50.940;5.282;2023-03-12T06:46:37;8.55;;;6.38;;
27666;SDS011;15074;50.940;5.282;2023-03-12T06:49:22;9.85;;;7.00;;
27666;SDS011;15074;50.940;5.282;2023-03-12T06:51:48;10.38;;;7.63;;
27666;SDS011;15074;50.940;5.282;2023-03-12T06:54:14;11.38;;;8.27;;
27666;SDS011;15074;50.940;5.282;2023-03-12T06:56:40;11.18;;;8.10;;
27666;SDS011;15074;50.940;5.282;2023-03-12T06:59:06;11.25;;;8.63;;
27666;SDS011;15074;50.940;5.282;2023-03-12T07:01:32;11.10;;;8.98;;
27666;SDS011;15074;50.940;5.282;2023-03-12T07:03:59;12.82;;;8.07;;
27666;SDS011;15074;50.940;5.282;2023-03-12T07:06:24;15.40;;;9.35;;
27666;SDS011;15074;50.940;5.282;2023-03-12T07:08:50;12.32;;;9.07;;
27666;SDS011;15074;50.940;5.282;2023-03-12T07:11:17;11.70;;;9.55;;
27666;SDS011;15074;50.940;5.282;2023-03-12T07:13:43;13.40;;;8.90;;
27666;SDS011;15074;50.940;5.282;2023-03-12T07:16:09;12.63;;;9.85;;
27666;SDS011;15074;50.940;5.282;2023-03-12T07:18:35;15.05;;;9.38;;
27666;SDS011;15074;50.940;5.282;2023-03-12T07:21:02;10.75;;;9.65;;
27666;SDS011;15074;50.940;5.282;2023-03-12T07:23:28;11.00;;;9.40;;
27666;SDS011;15074;50.940;5.282;2023-03-12T07:25:54;12.27;;;11.07;;
27666;SDS011;15074;50.940;5.282;2023-03-12T07:28:20;11.75;;;10.55;;
27666;SDS011;15074;50.940;5.282;2023-03-12T07:30:46;15.13;;;10.25;;
27666;SDS011;15074;50.940;5.282;2023-03-12T07:33:16;13.95;;;10.73;;
27666;SDS011;15074;50.940;5.282;2023-03-12T07:35:44;13.60;;;10.68;;
27666;SDS011;15074;50.940;5.282;2023-03-12T07:38:11;11.88;;;10.30;;
27666;SDS011;15074;50.940;5.282;2023-03-12T07:40:36;13.05;;;10.98;;
27666;SDS011;15074;50.940;5.282;2023-03-12T07:43:03;14.02;;;11.85;;
27666;SDS011;15074;50.940;5.282;2023-03-12T07:45:35;11.25;;;9.98;;
27666;SDS011;15074;50.940;5.282;2023-03-12T07:48:02;11.77;;;10.57;;
27666;SDS011;15074;50.940;5.282;2023-03-12T07:50:27;12.05;;;10.38;;
27666;SDS011;15074;50.940;5.282;2023-03-12T07:52:53;13.02;;;11.73;;
27666;SDS011;15074;50.940;5.282;2023-03-12T07:55:19;14.10;;;12.15;;
27666;SDS011;15074;50.940;5.282;2023-03-12T07:57:44;16.95;;;11.63;;
27666;SDS011;15074;50.940;5.282;2023-03-12T08:00:10;12.35;;;11.02;;
27666;SDS011;15074;50.940;5.282;2023-03-12T08:02:36;12.23;;;11.13;;
27666;SDS011;15074;50.940;5.282;2023-03-12T08:05:02;13.35;;;10.68;;
27666;SDS011;15074;50.940;5.282;2023-03-12T08:07:29;14.55;;;11.70;;
27666;SDS011;15074;50.940;5.282;2023-03-12T08:09:59;11.65;;;10.50;;
27666;SDS011;15074;50.940;5.282;2023-03-12T08:12:30;10.23;;;9.13;;
27666;SDS011;15074;50.940;5.282;2023-03-12T08:14:55;11.80;;;10.18;;
27666;SDS011;15074;50.940;5.282;2023-03-12T08:17:21;10.98;;;9.65;;
27666;SDS011;15074;50.940;5.282;2023-03-12T08:19:47;10.18;;;9.25;;
27666;SDS011;15074;50.940;5.282;2023-03-12T08:22:12;12.32;;;9.65;;
27666;SDS011;15074;50.940;5.282;2023-03-12T08:24:38;12.30;;;9.23;;
27666;SDS011;15074;50.940;5.282;2023-03-12T08:27:04;14.02;;;8.77;;
27666;SDS011;15074;50.940;5.282;2023-03-12T08:29:30;12.02;;;9.48;;
27666;SDS011;15074;50.940;5.282;2023-03-12T08:31:57;11.47;;;10.10;;
27666;SDS011;15074;50.940;5.282;2023-03-12T08:34:23;11.50;;;9.10;;
27666;SDS011;15074;50.940;5.282;2023-03-12T08:36:49;13.43;;;11.50;;
27666;SDS011;15074;50.940;5.282;2023-03-12T08:39:14;13.27;;;12.05;;
27666;SDS011;15074;50.940;5.282;2023-03-12T08:41:40;17.55;;;14.15;;
27666;SDS011;15074;50.940;5.282;2023-03-12T08:44:06;42.40;;;22.02;;
27666;SDS011;15074;50.940;5.282;2023-03-12T08:46:32;14.10;;;11.95;;
27666;SDS011;15074;50.940;5.282;2023-03-12T08:48:58;11.85;;;10.68;;
27666;SDS011;15074;50.940;5.282;2023-03-12T08:51:24;12.95;;;10.32;;
27666;SDS011;15074;50.940;5.282;2023-03-12T08:53:50;19.35;;;10.13;;
27666;SDS011;15074;50.940;5.282;2023-03-12T08:56:16;18.75;;;11.32;;
27666;SDS011;15074;50.940;5.282;2023-03-12T08:58:41;19.00;;;11.23;;
27666;SDS011;15074;50.940;5.282;2023-03-12T09:01:08;16.55;;;9.35;;
27666;SDS011;15074;50.940;5.282;2023-03-12T09:06:02;13.45;;;11.20;;
27666;SDS011;15074;50.940;5.282;2023-03-12T09:08:30;19.33;;;12.50;;
27666;SDS011;15074;50.940;5.282;2023-03-12T09:10:58;25.83;;;10.85;;
27666;SDS011;15074;50.940;5.282;2023-03-12T09:13:24;34.42;;;11.25;;
27666;SDS011;15074;50.940;5.282;2023-03-12T09:15:50;27.00;;;11.75;;
27666;SDS011;15074;50.940;5.282;2023-03-12T09:18:16;31.63;;;11.02;;
27666;SDS011;15074;50.940;5.282;2023-03-12T09:20:44;26.15;;;11.65;;
27666;SDS011;15074;50.940;5.282;2023-03-12T09:23:09;34.05;;;14.13;;
27666;SDS011;15074;50.940;5.282;2023-03-12T09:25:35;36.00;;;13.65;;
27666;SDS011;15074;50.940;5.282;2023-03-12T09:28:01;39.47;;;13.55;;
27666;SDS011;15074;50.940;5.282;2023-03-12T09:30:26;41.17;;;15.02;;
27666;SDS011;15074;50.940;5.282;2023-03-12T09:32:54;40.00;;;13.00;;
27666;SDS011;15074;50.940;5.282;2023-03-12T09:35:20;32.60;;;12.65;;
27666;SDS011;15074;50.940;5.282;2023-03-12T09:37:47;45.17;;;13.30;;
27666;SDS011;15074;50.940;5.282;2023-03-12T09:40:15;38.03;;;11.73;;
27666;SDS011;15074;50.940;5.282;2023-03-12T09:42:50;42.25;;;11.32;;
27666;SDS011;15074;50.940;5.282;2023-03-12T09:45:22;42.25;;;11.30;;
27666;SDS011;15074;50.940;5.282;2023-03-12T09:47:59;46.92;;;12.85;;
27666;SDS011;15074;50.940;5.282;2023-03-12T09:50:34;34.67;;;12.35;;
27666;SDS011;15074;50.940;5.282;2023-03-12T09:53:23;37.10;;;11.35;;
27666;SDS011;15074;50.940;5.282;2023-03-12T09:55:51;29.83;;;12.45;;
27666;SDS011;15074;50.940;5.282;2023-03-12T09:58:32;33.30;;;11.68;;
27666;SDS011;15074;50.940;5.282;2023-03-12T10:06:20;22.50;;;10.25;;
27666;SDS011;15074;50.940;5.282;2023-03-12T10:11:41;36.35;;;9.75;;
27666;SDS011;15074;50.940;5.282;2023-03-12T10:22:59;41.88;;;9.38;;
27666;SDS011;15074;50.940;5.282;2023-03-12T10:26:09;27.42;;;8.45;;
27666;SDS011;15074;50.940;5.282;2023-03-12T10:28:50;31.35;;;9.25;;
27666;SDS011;15074;50.940;5.282;2023-03-12T10:31:22;27.40;;;9.65;;
27666;SDS011;15074;50.940;5.282;2023-03-12T10:36:21;26.58;;;7.75;;
27666;SDS011;15074;50.940;5.282;2023-03-12T10:39:02;12.50;;;5.63;;
27666;SDS011;15074;50.940;5.282;2023-03-12T10:41:30;25.67;;;6.78;;
27666;SDS011;15074;50.940;5.282;2023-03-12T10:44:04;21.63;;;7.88;;
27666;SDS011;15074;50.940;5.282;2023-03-12T10:46:42;19.00;;;8.75;;
27666;SDS011;15074;50.940;5.282;2023-03-12T10:52:00;18.70;;;5.72;;
27666;SDS011;15074;50.940;5.282;2023-03-12T10:54:50;18.27;;;6.07;;
27666;SDS011;15074;50.940;5.282;2023-03-12T10:57:17;18.15;;;5.65;;
27666;SDS011;15074;50.940;5.282;2023-03-12T10:59:45;22.80;;;6.40;;
27666;SDS011;15074;50.940;5.282;2023-03-12T11:02:34;26.33;;;8.40;;
27666;SDS011;15074;50.940;5.282;2023-03-12T11:05:06;14.40;;;4.35;;
27666;SDS011;15074;50.940;5.282;2023-03-12T11:07:47;22.35;;;6.47;;
27666;SDS011;15074;50.940;5.282;2023-03-12T11:10:15;22.35;;;6.05;;
27666;SDS011;15074;50.940;5.282;2023-03-12T11:13:02;21.67;;;5.70;;
27666;SDS011;15074;50.940;5.282;2023-03-12T11:15:38;21.38;;;6.03;;
27666;SDS011;15074;50.940;5.282;2023-03-12T11:18:17;28.38;;;6.80;;
27666;SDS011;15074;50.940;5.282;2023-03-12T11:20:52;18.08;;;5.72;;
27666;SDS011;15074;50.940;5.282;2023-03-12T11:23:27;20.75;;;5.28;;
27666;SDS011;15074;50.940;5.282;2023-03-12T11:25:55;25.92;;;6.45;;
27666;SDS011;15074;50.940;5.282;2023-03-12T11:28:35;23.77;;;6.07;;
27666;SDS011;15074;50.940;5.282;2023-03-12T11:31:07;16.85;;;5.72;;
27666;SDS011;15074;50.940;5.282;2023-03-12T11:33:43;25.42;;;7.05;;
27666;SDS011;15074;50.940;5.282;2023-03-12T11:39:04;21.48;;;6.78;;
27666;SDS011;15074;50.940;5.282;2023-03-12T11:52:53;14.88;;;5.38;;
27666;SDS011;15074;50.940;5.282;2023-03-12T11:55:36;17.05;;;5.45;;
27666;SDS011;15074;50.940;5.282;2023-03-12T12:03:51;23.13;;;6.10;;
27666;SDS011;15074;50.940;5.282;2023-03-12T12:28:44;27.23;;;5.57;;
27666;SDS011;15074;50.940;5.282;2023-03-12T12:34:09;22.63;;;4.90;;
27666;SDS011;15074;50.940;5.282;2023-03-12T12:36:37;17.70;;;4.13;;
27666;SDS011;15074;50.940;5.282;2023-03-12T12:41:47;12.60;;;4.25;;
27666;SDS011;15074;50.940;5.282;2023-03-12T12:44:18;17.67;;;3.72;;
27666;SDS011;15074;50.940;5.282;2023-03-12T12:46:53;22.00;;;5.93;;
27666;SDS011;15074;50.940;5.282;2023-03-12T12:49:24;20.73;;;5.70;;
27666;SDS011;15074;50.940;5.282;2023-03-12T12:52:00;20.33;;;6.95;;
27666;SDS011;15074;50.940;5.282;2023-03-12T12:54:37;23.48;;;6.50;;
27666;SDS011;15074;50.940;5.282;2023-03-12T13:00:18;16.23;;;6.13;;
27666;SDS011;15074;50.940;5.282;2023-03-12T13:02:58;18.95;;;4.45;;
27666;SDS011;15074;50.940;5.282;2023-03-12T13:05:39;18.52;;;4.85;;
27666;SDS011;15074;50.940;5.282;2023-03-12T13:08:30;22.73;;;4.78;;
27666;SDS011;15074;50.940;5.282;2023-03-12T13:13:44;25.27;;;6.10;;
27666;SDS011;15074;50.940;5.282;2023-03-12T13:21:38;33.80;;;6.72;;
27666;SDS011;15074;50.940;5.282;2023-03-12T13:24:10;21.65;;;4.43;;
27666;SDS011;15074;50.940;5.282;2023-03-12T13:31:54;25.10;;;5.78;;
27666;SDS011;15074;50.940;5.282;2023-03-12T13:37:16;23.80;;;6.05;;
27666;SDS011;15074;50.940;5.282;2023-03-12T13:39:42;27.40;;;6.97;;
27666;SDS011;15074;50.940;5.282;2023-03-12T13:42:25;22.95;;;5.80;;
27666;SDS011;15074;50.940;5.282;2023-03-12T13:45:19;20.98;;;5.65;;
27666;SDS011;15074;50.940;5.282;2023-03-12T13:47:47;27.42;;;7.95;;
27666;SDS011;15074;50.940;5.282;2023-03-12T13:50:14;22.70;;;5.03;;
27666;SDS011;15074;50.940;5.282;2023-03-12T13:57:45;19.55;;;6.38;;
27666;SDS011;15074;50.940;5.282;2023-03-12T14:02:48;16.38;;;5.05;;
27666;SDS011;15074;50.940;5.282;2023-03-12T14:05:23;20.17;;;4.63;;
27666;SDS011;15074;50.940;5.282;2023-03-12T14:10:41;20.58;;;4.35;;
27666;SDS011;15074;50.940;5.282;2023-03-12T14:15:54;24.08;;;5.15;;
27666;SDS011;15074;50.940;5.282;2023-03-12T14:18:36;15.55;;;4.38;;
27666;SDS011;15074;50.940;5.282;2023-03-12T14:21:07;23.23;;;4.72;;
27666;SDS011;15074;50.940;5.282;2023-03-12T14:23:38;27.35;;;5.70;;
27666;SDS011;15074;50.940;5.282;2023-03-12T14:26:16;20.23;;;4.70;;
27666;SDS011;15074;50.940;5.282;2023-03-12T14:28:45;21.80;;;4.57;;
27666;SDS011;15074;50.940;5.282;2023-03-12T14:31:14;24.02;;;5.18;;
27666;SDS011;15074;50.940;5.282;2023-03-12T14:36:45;13.88;;;3.65;;
27666;SDS011;15074;50.940;5.282;2023-03-12T14:41:53;22.15;;;3.35;;
27666;SDS011;15074;50.940;5.282;2023-03-12T14:44:25;19.30;;;4.03;;
27666;SDS011;15074;50.940;5.282;2023-03-12T14:46:56;25.33;;;4.72;;
27666;SDS011;15074;50.940;5.282;2023-03-12T14:49:27;16.90;;;5.07;;
27666;SDS011;15074;50.940;5.282;2023-03-12T14:51:55;16.80;;;4.57;;
27666;SDS011;15074;50.940;5.282;2023-03-12T14:54:22;13.70;;;4.05;;
27666;SDS011;15074;50.940;5.282;2023-03-12T14:56:49;19.95;;;4.10;;
27666;SDS011;15074;50.940;5.282;2023-03-12T14:59:29;17.23;;;3.60;;
27666;SDS011;15074;50.940;5.282;2023-03-12T15:02:15;18.95;;;3.60;;
27666;SDS011;15074;50.940;5.282;2023-03-12T15:04:43;24.50;;;4.50;;
27666;SDS011;15074;50.940;5.282;2023-03-12T15:07:12;17.15;;;4.05;;
27666;SDS011;15074;50.940;5.282;2023-03-12T15:09:43;18.75;;;5.25;;
27666;SDS011;15074;50.940;5.282;2023-03-12T15:14:42;20.15;;;4.85;;
27666;SDS011;15074;50.940;5.282;2023-03-12T15:17:18;25.92;;;5.43;;
27666;SDS011;15074;50.940;5.282;2023-03-12T15:19:46;15.50;;;3.95;;
27666;SDS011;15074;50.940;5.282;2023-03-12T15:22:16;22.40;;;5.55;;
27666;SDS011;15074;50.940;5.282;2023-03-12T15:24:45;17.70;;;5.63;;
27666;SDS011;15074;50.940;5.282;2023-03-12T15:29:49;12.93;;;5.47;;
27666;SDS011;15074;50.940;5.282;2023-03-12T15:32:16;21.17;;;5.90;;
27666;SDS011;15074;50.940;5.282;2023-03-12T15:34:46;18.90;;;7.15;;
27666;SDS011;15074;50.940;5.282;2023-03-12T15:37:31;20.30;;;4.57;;
27666;SDS011;15074;50.940;5.282;2023-03-12T15:40:06;18.02;;;7.13;;
27666;SDS011;15074;50.940;5.282;2023-03-12T15:42:45;25.10;;;7.15;;
27666;SDS011;15074;50.940;5.282;2023-03-12T15:45:22;27.70;;;7.07;;
27666;SDS011;15074;50.940;5.282;2023-03-12T15:47:50;16.20;;;5.60;;
27666;SDS011;15074;50.940;5.282;2023-03-12T15:58:35;15.20;;;4.05;;
27666;SDS011;15074;50.940;5.282;2023-03-12T16:03:37;18.35;;;5.82;;
27666;SDS011;15074;50.940;5.282;2023-03-12T16:06:04;15.60;;;4.85;;
27666;SDS011;15074;50.940;5.282;2023-03-12T16:08:44;22.10;;;4.28;;
27666;SDS011;15074;50.940;5.282;2023-03-12T16:11:17;18.05;;;4.65;;
27666;SDS011;15074;50.940;5.282;2023-03-12T16:13:46;12.88;;;5.00;;
27666;SDS011;15074;50.940;5.282;2023-03-12T16:16:14;13.77;;;3.88;;
27666;SDS011;15074;50.940;5.282;2023-03-12T16:18:40;10.02;;;3.65;;
27666;SDS011;15074;50.940;5.282;2023-03-12T16:21:06;22.90;;;6.53;;
27666;SDS011;15074;50.940;5.282;2023-03-12T16:23:33;16.58;;;5.72;;
27666;SDS011;15074;50.940;5.282;2023-03-12T16:25:59;15.50;;;4.05;;
27666;SDS011;15074;50.940;5.282;2023-03-12T16:28:25;10.82;;;3.25;;
27666;SDS011;15074;50.940;5.282;2023-03-12T16:30:51;16.90;;;3.80;;
27666;SDS011;15074;50.940;5.282;2023-03-12T16:33:18;15.50;;;3.47;;
27666;SDS011;15074;50.940;5.282;2023-03-12T16:35:45;20.23;;;4.22;;
27666;SDS011;15074;50.940;5.282;2023-03-12T16:38:12;15.68;;;3.28;;
27666;SDS011;15074;50.940;5.282;2023-03-12T16:40:38;15.60;;;4.25;;
27666;SDS011;15074;50.940;5.282;2023-03-12T16:43:10;19.10;;;3.30;;
27666;SDS011;15074;50.940;5.282;2023-03-12T16:45:42;20.90;;;3.40;;
27666;SDS011;15074;50.940;5.282;2023-03-12T16:48:10;9.65;;;3.97;;
27666;SDS011;15074;50.940;5.282;2023-03-12T16:50:39;18.35;;;5.72;;
27666;SDS011;15074;50.940;5.282;2023-03-12T16:53:04;18.08;;;4.10;;
27666;SDS011;15074;50.940;5.282;2023-03-12T16:55:35;19.33;;;3.70;;
27666;SDS011;15074;50.940;5.282;2023-03-12T16:58:09;13.40;;;5.38;;
27666;SDS011;15074;50.940;5.282;2023-03-12T17:00:37;8.73;;;3.22;;
27666;SDS011;15074;50.940;5.282;2023-03-12T17:03:03;19.45;;;5.15;;
27666;SDS011;15074;50.940;5.282;2023-03-12T17:05:30;19.93;;;4.67;;
27666;SDS011;15074;50.940;5.282;2023-03-12T17:07:56;18.23;;;4.13;;
27666;SDS011;15074;50.940;5.282;2023-03-12T17:10:23;10.07;;;4.00;;
27666;SDS011;15074;50.940;5.282;2023-03-12T17:12:50;20.13;;;4.88;;
27666;SDS011;15074;50.940;5.282;2023-03-12T17:15:21;14.93;;;4.30;;
27666;SDS011;15074;50.940;5.282;2023-03-12T17:17:50;10.98;;;3.47;;
27666;SDS011;15074;50.940;5.282;2023-03-12T17:20:16;17.10;;;3.92;;
27666;SDS011;15074;50.940;5.282;2023-03-12T17:22:45;19.92;;;4.00;;
27666;SDS011;15074;50.940;5.282;2023-03-12T17:25:21;11.82;;;4.32;;
27666;SDS011;15074;50.940;5.282;2023-03-12T17:27:49;10.77;;;3.38;;
27666;SDS011;15074;50.940;5.282;2023-03-12T17:30:15;13.20;;;3.85;;
27666;SDS011;15074;50.940;5.282;2023-03-12T17:32:41;12.52;;;4.22;;
27666;SDS011;15074;50.940;5.282;2023-03-12T17:35:07;11.52;;;3.25;;
27666;SDS011;15074;50.940;5.282;2023-03-12T17:37:33;25.17;;;3.70;;
27666;SDS011;15074;50.940;5.282;2023-03-12T17:40:00;21.80;;;3.83;;
27666;SDS011;15074;50.940;5.282;2023-03-12T17:42:31;17.75;;;4.38;;
27666;SDS011;15074;50.940;5.282;2023-03-12T17:44:58;13.57;;;3.47;;
27666;SDS011;15074;50.940;5.282;2023-03-12T17:47:24;21.45;;;4.55;;
27666;SDS011;15074;50.940;5.282;2023-03-12T17:49:50;12.88;;;3.50;;
27666;SDS011;15074;50.940;5.282;2023-03-12T17:52:16;13.05;;;4.50;;
27666;SDS011;15074;50.940;5.282;2023-03-12T17:54:41;19.70;;;3.15;;
27666;SDS011;15074;50.940;5.282;2023-03-12T17:57:07;20.52;;;4.70;;
27666;SDS011;15074;50.940;5.282;2023-03-12T17:59:33;14.77;;;3.05;;
27666;SDS011;15074;50.940;5.282;2023-03-12T18:01:58;11.00;;;3.15;;
27666;SDS011;15074;50.940;5.282;2023-03-12T18:04:24;10.55;;;3.10;;
27666;SDS011;15074;50.940;5.282;2023-03-12T18:06:50;15.30;;;4.15;;
27666;SDS011;15074;50.940;5.282;2023-03-12T18:09:15;21.83;;;3.75;;
27666;SDS011;15074;50.940;5.282;2023-03-12T18:11:41;17.60;;;3.72;;
27666;SDS011;15074;50.940;5.282;2023-03-12T18:14:07;16.88;;;3.33;;
27666;SDS011;15074;50.940;5.282;2023-03-12T18:16:33;19.25;;;3.92;;
27666;SDS011;15074;50.940;5.282;2023-03-12T18:18:58;19.42;;;4.53;;
27666;SDS011;15074;50.940;5.282;2023-03-12T18:21:24;8.38;;;3.42;;
27666;SDS011;15074;50.940;5.282;2023-03-12T18:23:50;23.40;;;4.47;;
27666;SDS011;15074;50.940;5.282;2023-03-12T18:26:15;18.50;;;5.15;;
27666;SDS011;15074;50.940;5.282;2023-03-12T18:28:41;19.98;;;4.05;;
27666;SDS011;15074;50.940;5.282;2023-03-12T18:31:07;19.25;;;4.18;;